sensor_id;sensor_type;location;lat;lon;timestamp;pressure;altitude;pressure_sealevel;temperature;humidity
19596;BME280;9945;46.010;8.946;2023-01-30T00:01:15;97818.25;;;5.36;52.41
19596;BME280;9945;46.010;8.946;2023-01-30T00:03:43;97812.00;;;5.26;53.01
19596;BME280;9945;46.010;8.946;2023-01-30T00:06:11;97814.38;;;5.16;53.56
19596;BME280;9945;46.010;8.946;2023-01-30T00:08:38;97805.94;;;5.13;53.35
19596;BME280;9945;46.010;8.946;2023-01-30T00:11:06;97802.31;;;5.15;52.79
19596;BME280;9945;46.010;8.946;2023-01-30T00:13:33;97803.69;;;5.21;51.46
19596;BME280;9945;46.010;8.946;2023-01-30T00:16:00;97798.25;;;5.11;52.73
19596;BME280;9945;46.010;8.946;2023-01-30T00:18:27;97792.44;;;5.08;52.28
19596;BME280;9945;46.010;8.946;2023-01-30T00:20:57;97789.34;;;5.15;52.21
19596;BME280;9945;46.010;8.946;2023-01-30T00:23:25;97786.91;;;5.00;52.53
19596;BME280;9945;46.010;8.946;2023-01-30T00:25:52;97775.63;;;5.01;53.59
19596;BME280;9945;46.010;8.946;2023-01-30T00:28:20;97780.34;;;4.94;53.33
19596;BME280;9945;46.010;8.946;2023-01-30T00:30:47;97770.19;;;4.91;54.44
19596;BME280;9945;46.010;8.946;2023-01-30T00:33:14;97772.56;;;4.94;53.25
19596;BME280;9945;46.010;8.946;2023-01-30T00:35:42;97773.81;;;4.88;54.31
19596;BME280;9945;46.010;8.946;2023-01-30T00:38:11;97769.97;;;4.94;54.53
19596;BME280;9945;46.010;8.946;2023-01-30T00:40:38;97771.84;;;4.92;54.68
19596;BME280;9945;46.010;8.946;2023-01-30T00:43:05;97773.16;;;4.85;55.74
19596;BME280;9945;46.010;8.946;2023-01-30T00:45:51;97764.34;;;4.87;55.80
19596;BME280;9945;46.010;8.946;2023-01-30T00:48:37;97777.47;;;4.99;54.71
19596;BME280;9945;46.010;8.946;2023-01-30T00:51:04;97767.88;;;4.86;54.97
19596;BME280;9945;46.010;8.946;2023-01-30T00:53:32;97772.44;;;4.83;55.13
19596;BME280;9945;46.010;8.946;2023-01-30T00:55:59;97768.09;;;4.83;54.67
19596;BME280;9945;46.010;8.946;2023-01-30T00:58:26;97762.44;;;4.77;54.68
19596;BME280;9945;46.010;8.946;2023-01-30T01:00:53;97764.25;;;4.76;54.09
19596;BME280;9945;46.010;8.946;2023-01-30T01:03:20;97760.16;;;4.72;53.82
19596;BME280;9945;46.010;8.946;2023-01-30T01:05:47;97763.50;;;4.74;53.67
19596;BME280;9945;46.010;8.946;2023-01-30T01:08:14;97767.28;;;4.69;54.02
19596;BME280;9945;46.010;8.946;2023-01-30T01:10:43;97762.09;;;4.69;53.47
19596;BME280;9945;46.010;8.946;2023-01-30T01:13:09;97759.72;;;4.66;52.74
19596;BME280;9945;46.010;8.946;2023-01-30T01:15:36;97753.06;;;4.62;53.45
19596;BME280;9945;46.010;8.946;2023-01-30T01:18:03;97760.47;;;4.68;52.84
19596;BME280;9945;46.010;8.946;2023-01-30T01:20:30;97759.16;;;4.61;53.67
19596;BME280;9945;46.010;8.946;2023-01-30T01:22:57;97752.88;;;4.65;54.52
19596;BME280;9945;46.010;8.946;2023-01-30T01:25:25;97756.38;;;4.64;53.42
19596;BME280;9945;46.010;8.946;2023-01-30T01:27:54;97751.06;;;4.52;54.85
19596;BME280;9945;46.010;8.946;2023-01-30T01:30:21;97756.06;;;4.55;54.85
19596;BME280;9945;46.010;8.946;2023-01-30T01:32:48;97758.91;;;4.51;53.85
19596;BME280;9945;46.010;8.946;2023-01-30T01:35:15;97753.38;;;4.57;53.82
19596;BME280;9945;46.010;8.946;2023-01-30T01:37:44;97754.38;;;4.54;54.05
19596;BME280;9945;46.010;8.946;2023-01-30T01:40:17;97748.28;;;4.55;53.89
19596;BME280;9945;46.010;8.946;2023-01-30T01:43:14;97744.75;;;4.56;54.04
19596;BME280;9945;46.010;8.946;2023-01-30T01:45:42;97746.06;;;4.49;54.49
19596;BME280;9945;46.010;8.946;2023-01-30T01:48:13;97750.53;;;4.47;54.36
19596;BME280;9945;46.010;8.946;2023-01-30T01:50:48;97740.50;;;4.55;55.76
19596;BME280;9945;46.010;8.946;2023-01-30T01:53:20;97737.06;;;4.55;54.30
19596;BME280;9945;46.010;8.946;2023-01-30T01:55:51;97742.91;;;4.59;53.38
19596;BME280;9945;46.010;8.946;2023-01-30T01:58:25;97736.41;;;4.51;54.34
19596;BME280;9945;46.010;8.946;2023-01-30T02:00:56;97731.13;;;4.53;53.84
19596;BME280;9945;46.010;8.946;2023-01-30T02:03:27;97737.47;;;4.49;53.22
19596;BME280;9945;46.010;8.946;2023-01-30T02:05:57;97736.41;;;4.51;53.55
19596;BME280;9945;46.010;8.946;2023-01-30T02:08:26;97731.22;;;4.51;53.49
19596;BME280;9945;46.010;8.946;2023-01-30T02:10:58;97730.03;;;4.57;53.27
19596;BME280;9945;46.010;8.946;2023-01-30T02:13:28;97730.41;;;4.51;53.44
19596;BME280;9945;46.010;8.946;2023-01-30T02:15:57;97719.22;;;4.50;53.80
19596;BME280;9945;46.010;8.946;2023-01-30T02:18:26;97721.59;;;4.53;53.36
19596;BME280;9945;46.010;8.946;2023-01-30T02:24:17;97705.22;;;4.53;53.50
19596;BME280;9945;46.010;8.946;2023-01-30T02:27:01;97708.03;;;4.50;53.25
19596;BME280;9945;46.010;8.946;2023-01-30T02:30:09;97706.72;;;4.43;54.34
19596;BME280;9945;46.010;8.946;2023-01-30T02:32:49;97709.03;;;4.47;54.87
19596;BME280;9945;46.010;8.946;2023-01-30T02:35:24;97706.63;;;4.44;55.13
19596;BME280;9945;46.010;8.946;2023-01-30T02:38:07;97704.97;;;4.43;55.50
19596;BME280;9945;46.010;8.946;2023-01-30T02:40:43;97702.50;;;4.42;54.22
19596;BME280;9945;46.010;8.946;2023-01-30T02:43:19;97700.34;;;4.48;53.85
19596;BME280;9945;46.010;8.946;2023-01-30T02:45:53;97701.28;;;4.47;55.03
19596;BME280;9945;46.010;8.946;2023-01-30T02:48:26;97703.13;;;4.45;53.69
19596;BME280;9945;46.010;8.946;2023-01-30T02:50:58;97697.31;;;4.42;55.71
19596;BME280;9945;46.010;8.946;2023-01-30T02:53:29;97697.06;;;4.32;55.95
19596;BME280;9945;46.010;8.946;2023-01-30T02:55:58;97694.81;;;4.40;55.24
19596;BME280;9945;46.010;8.946;2023-01-30T02:58:28;97688.16;;;4.36;54.73
19596;BME280;9945;46.010;8.946;2023-01-30T03:01:13;97685.13;;;4.30;55.44
19596;BME280;9945;46.010;8.946;2023-01-30T03:04:08;97681.78;;;4.28;55.34
19596;BME280;9945;46.010;8.946;2023-01-30T03:06:57;97687.38;;;4.22;55.89
19596;BME280;9945;46.010;8.946;2023-01-30T03:09:37;97686.06;;;4.29;54.28
19596;BME280;9945;46.010;8.946;2023-01-30T03:12:13;97685.88;;;4.32;54.18
19596;BME280;9945;46.010;8.946;2023-01-30T03:14:47;97679.03;;;4.31;54.92
19596;BME280;9945;46.010;8.946;2023-01-30T03:17:16;97674.84;;;4.28;54.86
19596;BME280;9945;46.010;8.946;2023-01-30T03:19:45;97676.63;;;4.28;55.53
19596;BME280;9945;46.010;8.946;2023-01-30T03:22:12;97670.22;;;4.33;55.23
19596;BME280;9945;46.010;8.946;2023-01-30T03:24:39;97665.22;;;4.30;54.92
19596;BME280;9945;46.010;8.946;2023-01-30T03:27:10;97655.84;;;4.15;54.08
19596;BME280;9945;46.010;8.946;2023-01-30T03:29:38;97657.94;;;4.23;54.76
19596;BME280;9945;46.010;8.946;2023-01-30T03:32:05;97652.94;;;4.19;54.65
19596;BME280;9945;46.010;8.946;2023-01-30T03:34:32;97641.13;;;4.15;53.52
19596;BME280;9945;46.010;8.946;2023-01-30T03:37:01;97642.41;;;4.23;54.95
19596;BME280;9945;46.010;8.946;2023-01-30T03:39:28;97633.56;;;4.12;55.00
19596;BME280;9945;46.010;8.946;2023-01-30T03:41:55;97624.84;;;4.13;54.40
19596;BME280;9945;46.010;8.946;2023-01-30T03:44:22;97625.34;;;4.06;55.74
19596;BME280;9945;46.010;8.946;2023-01-30T03:46:48;97622.53;;;4.09;53.90
19596;BME280;9945;46.010;8.946;2023-01-30T03:49:15;97624.03;;;4.13;54.67
19596;BME280;9945;46.010;8.946;2023-01-30T03:51:42;97626.63;;;4.13;54.69
19596;BME280;9945;46.010;8.946;2023-01-30T03:54:11;97625.78;;;4.12;53.44
19596;BME280;9945;46.010;8.946;2023-01-30T03:56:37;97613.84;;;4.10;54.52
19596;BME280;9945;46.010;8.946;2023-01-30T03:59:04;97611.13;;;3.99;53.88
19596;BME280;9945;46.010;8.946;2023-01-30T04:01:31;97603.88;;;4.04;53.69
19596;BME280;9945;46.010;8.946;2023-01-30T04:03:58;97606.66;;;4.01;53.54
19596;BME280;9945;46.010;8.946;2023-01-30T04:06:25;97599.09;;;3.98;53.54
19596;BME280;9945;46.010;8.946;2023-01-30T04:08:52;97604.47;;;3.95;54.83
19596;BME280;9945;46.010;8.946;2023-01-30T04:11:20;97598.19;;;3.99;53.08
19596;BME280;9945;46.010;8.946;2023-01-30T04:13:47;97602.97;;;4.05;53.81
19596;BME280;9945;46.010;8.946;2023-01-30T04:16:19;97610.16;;;4.00;53.91
19596;BME280;9945;46.010;8.946;2023-01-30T04:18:47;97612.25;;;3.95;54.93
19596;BME280;9945;46.010;8.946;2023-01-30T04:21:15;97601.34;;;3.90;54.73
19596;BME280;9945;46.010;8.946;2023-01-30T04:23:42;97603.94;;;3.90;55.04
19596;BME280;9945;46.010;8.946;2023-01-30T04:26:10;97599.13;;;3.84;54.62
19596;BME280;9945;46.010;8.946;2023-01-30T04:28:39;97611.16;;;3.85;55.17
19596;BME280;9945;46.010;8.946;2023-01-30T04:31:07;97616.16;;;3.88;53.94
19596;BME280;9945;46.010;8.946;2023-01-30T04:33:34;97613.03;;;3.83;54.05
19596;BME280;9945;46.010;8.946;2023-01-30T04:36:03;97617.06;;;3.87;55.27
19596;BME280;9945;46.010;8.946;2023-01-30T04:38:31;97608.13;;;3.78;54.35
19596;BME280;9945;46.010;8.946;2023-01-30T04:40:58;97610.22;;;3.86;54.66
19596;BME280;9945;46.010;8.946;2023-01-30T04:43:27;97611.25;;;3.83;55.18
19596;BME280;9945;46.010;8.946;2023-01-30T04:45:56;97611.38;;;3.82;55.23
19596;BME280;9945;46.010;8.946;2023-01-30T04:48:24;97603.69;;;3.80;55.22
19596;BME280;9945;46.010;8.946;2023-01-30T04:50:54;97597.28;;;3.86;54.75
19596;BME280;9945;46.010;8.946;2023-01-30T04:53:21;97595.19;;;3.78;55.11
19596;BME280;9945;46.010;8.946;2023-01-30T04:55:51;97594.34;;;3.77;54.53
19596;BME280;9945;46.010;8.946;2023-01-30T04:58:18;97592.50;;;3.79;55.25
19596;BME280;9945;46.010;8.946;2023-01-30T05:00:45;97597.69;;;3.79;55.18
19596;BME280;9945;46.010;8.946;2023-01-30T05:03:13;97596.53;;;3.84;54.60
19596;BME280;9945;46.010;8.946;2023-01-30T05:05:40;97601.00;;;3.82;54.95
19596;BME280;9945;46.010;8.946;2023-01-30T05:08:07;97602.84;;;3.79;55.19
19596;BME280;9945;46.010;8.946;2023-01-30T05:10:34;97604.88;;;3.89;54.94
19596;BME280;9945;46.010;8.946;2023-01-30T05:13:01;97607.25;;;3.92;54.14
19596;BME280;9945;46.010;8.946;2023-01-30T05:15:28;97603.38;;;3.85;54.03
19596;BME280;9945;46.010;8.946;2023-01-30T05:17:55;97598.84;;;3.88;54.51
19596;BME280;9945;46.010;8.946;2023-01-30T05:20:23;97587.13;;;3.83;55.58
19596;BME280;9945;46.010;8.946;2023-01-30T05:22:50;97587.75;;;3.86;55.55
19596;BME280;9945;46.010;8.946;2023-01-30T05:25:17;97588.78;;;3.84;55.23
19596;BME280;9945;46.010;8.946;2023-01-30T05:27:44;97580.38;;;3.80;54.18
19596;BME280;9945;46.010;8.946;2023-01-30T05:30:11;97577.13;;;3.76;54.72
19596;BME280;9945;46.010;8.946;2023-01-30T05:32:38;97570.59;;;3.71;54.36
19596;BME280;9945;46.010;8.946;2023-01-30T05:35:06;97570.66;;;3.84;54.70
19596;BME280;9945;46.010;8.946;2023-01-30T05:37:34;97580.28;;;3.82;53.58
19596;BME280;9945;46.010;8.946;2023-01-30T05:40:03;97580.47;;;3.78;53.92
19596;BME280;9945;46.010;8.946;2023-01-30T05:42:30;97573.81;;;3.74;54.07
19596;BME280;9945;46.010;8.946;2023-01-30T05:44:57;97559.22;;;3.73;54.71
19596;BME280;9945;46.010;8.946;2023-01-30T05:47:24;97555.69;;;3.74;54.06
19596;BME280;9945;46.010;8.946;2023-01-30T05:49:51;97556.25;;;3.79;53.96
19596;BME280;9945;46.010;8.946;2023-01-30T05:52:18;97544.88;;;3.82;53.91
19596;BME280;9945;46.010;8.946;2023-01-30T05:54:46;97555.56;;;3.90;53.23
19596;BME280;9945;46.010;8.946;2023-01-30T05:57:13;97554.91;;;3.87;53.75
19596;BME280;9945;46.010;8.946;2023-01-30T05:59:39;97549.75;;;3.87;54.15
19596;BME280;9945;46.010;8.946;2023-01-30T06:02:06;97568.31;;;3.93;54.33
19596;BME280;9945;46.010;8.946;2023-01-30T06:04:33;97576.81;;;3.95;54.64
19596;BME280;9945;46.010;8.946;2023-01-30T06:07:00;97580.31;;;3.94;54.45
19596;BME280;9945;46.010;8.946;2023-01-30T06:09:27;97574.03;;;3.71;54.77
19596;BME280;9945;46.010;8.946;2023-01-30T06:11:55;97576.97;;;3.79;54.04
19596;BME280;9945;46.010;8.946;2023-01-30T06:14:22;97581.91;;;3.97;54.50
19596;BME280;9945;46.010;8.946;2023-01-30T06:16:49;97566.78;;;4.03;54.46
19596;BME280;9945;46.010;8.946;2023-01-30T06:19:16;97556.34;;;4.05;54.38
19596;BME280;9945;46.010;8.946;2023-01-30T06:21:43;97561.19;;;4.09;53.94
19596;BME280;9945;46.010;8.946;2023-01-30T06:24:10;97562.88;;;4.10;54.58
19596;BME280;9945;46.010;8.946;2023-01-30T06:26:37;97568.34;;;4.06;53.44
19596;BME280;9945;46.010;8.946;2023-01-30T06:29:05;97554.91;;;4.13;54.89
19596;BME280;9945;46.010;8.946;2023-01-30T06:31:32;97563.19;;;4.06;54.61
19596;BME280;9945;46.010;8.946;2023-01-30T06:33:59;97561.09;;;4.11;53.64
19596;BME280;9945;46.010;8.946;2023-01-30T06:36:25;97558.84;;;4.19;53.83
19596;BME280;9945;46.010;8.946;2023-01-30T06:38:52;97553.06;;;4.28;53.84
19596;BME280;9945;46.010;8.946;2023-01-30T06:41:20;97558.06;;;4.31;54.01
19596;BME280;9945;46.010;8.946;2023-01-30T06:43:47;97561.78;;;4.27;52.66
19596;BME280;9945;46.010;8.946;2023-01-30T06:46:15;97544.28;;;4.31;52.87
19596;BME280;9945;46.010;8.946;2023-01-30T06:48:42;97543.13;;;4.35;53.92
19596;BME280;9945;46.010;8.946;2023-01-30T06:51:09;97546.13;;;4.29;53.81
19596;BME280;9945;46.010;8.946;2023-01-30T06:53:36;97546.22;;;4.27;52.73
19596;BME280;9945;46.010;8.946;2023-01-30T06:56:03;97528.91;;;4.28;53.93
19596;BME280;9945;46.010;8.946;2023-01-30T06:58:30;97531.50;;;4.28;54.60
19596;BME280;9945;46.010;8.946;2023-01-30T07:00:57;97519.19;;;4.31;54.29
19596;BME280;9945;46.010;8.946;2023-01-30T07:03:25;97523.63;;;4.29;54.88
19596;BME280;9945;46.010;8.946;2023-01-30T07:05:52;97539.38;;;4.26;54.69
19596;BME280;9945;46.010;8.946;2023-01-30T07:08:19;97525.50;;;4.27;54.77
19596;BME280;9945;46.010;8.946;2023-01-30T07:10:46;97538.53;;;4.26;53.99
19596;BME280;9945;46.010;8.946;2023-01-30T07:13:13;97537.53;;;4.28;55.15
19596;BME280;9945;46.010;8.946;2023-01-30T07:15:40;97549.22;;;4.21;54.79
19596;BME280;9945;46.010;8.946;2023-01-30T07:18:07;97551.06;;;4.19;54.07
19596;BME280;9945;46.010;8.946;2023-01-30T07:20:35;97548.22;;;3.97;54.53
19596;BME280;9945;46.010;8.946;2023-01-30T07:23:02;97544.72;;;3.98;54.69
19596;BME280;9945;46.010;8.946;2023-01-30T07:25:29;97557.44;;;4.01;54.70
19596;BME280;9945;46.010;8.946;2023-01-30T07:27:58;97553.66;;;4.06;54.29
19596;BME280;9945;46.010;8.946;2023-01-30T07:30:27;97560.38;;;4.09;54.33
19596;BME280;9945;46.010;8.946;2023-01-30T07:32:56;97552.56;;;4.23;55.30
19596;BME280;9945;46.010;8.946;2023-01-30T07:35:25;97564.56;;;4.24;55.47
19596;BME280;9945;46.010;8.946;2023-01-30T07:37:54;97570.91;;;4.33;54.80
19596;BME280;9945;46.010;8.946;2023-01-30T07:40:21;97570.75;;;4.48;53.16
19596;BME280;9945;46.010;8.946;2023-01-30T07:42:56;97575.00;;;4.49;52.22
19596;BME280;9945;46.010;8.946;2023-01-30T07:45:23;97562.97;;;4.61;52.15
19596;BME280;9945;46.010;8.946;2023-01-30T07:47:50;97562.88;;;4.63;53.63
19596;BME280;9945;46.010;8.946;2023-01-30T07:50:17;97571.28;;;4.79;52.49
19596;BME280;9945;46.010;8.946;2023-01-30T07:52:44;97562.56;;;4.92;51.69
19596;BME280;9945;46.010;8.946;2023-01-30T07:55:12;97562.03;;;5.13;52.31
19596;BME280;9945;46.010;8.946;2023-01-30T07:57:39;97556.97;;;5.48;51.24
19596;BME280;9945;46.010;8.946;2023-01-30T08:00:07;97550.28;;;5.69;49.96
19596;BME280;9945;46.010;8.946;2023-01-30T08:02:36;97547.47;;;5.96;48.53
19596;BME280;9945;46.010;8.946;2023-01-30T08:05:03;97546.09;;;6.27;48.13
19596;BME280;9945;46.010;8.946;2023-01-30T08:07:31;97550.13;;;6.42;47.10
19596;BME280;9945;46.010;8.946;2023-01-30T08:09:57;97538.00;;;6.65;46.93
19596;BME280;9945;46.010;8.946;2023-01-30T08:12:26;97538.16;;;6.86;46.38
19596;BME280;9945;46.010;8.946;2023-01-30T08:14:53;97546.09;;;7.06;46.46
19596;BME280;9945;46.010;8.946;2023-01-30T08:17:20;97543.16;;;7.22;46.56
19596;BME280;9945;46.010;8.946;2023-01-30T08:19:47;97541.25;;;7.35;45.77
19596;BME280;9945;46.010;8.946;2023-01-30T08:22:14;97536.88;;;7.47;45.63
19596;BME280;9945;46.010;8.946;2023-01-30T08:24:41;97530.56;;;7.60;45.55
19596;BME280;9945;46.010;8.946;2023-01-30T08:27:08;97527.72;;;7.52;44.69
19596;BME280;9945;46.010;8.946;2023-01-30T08:29:36;97525.72;;;7.45;45.78
19596;BME280;9945;46.010;8.946;2023-01-30T08:32:03;97533.38;;;7.57;45.67
19596;BME280;9945;46.010;8.946;2023-01-30T08:34:30;97535.88;;;7.70;44.89
19596;BME280;9945;46.010;8.946;2023-01-30T08:36:57;97548.72;;;7.83;44.29
19596;BME280;9945;46.010;8.946;2023-01-30T08:39:24;97544.84;;;7.77;43.20
19596;BME280;9945;46.010;8.946;2023-01-30T08:41:51;97539.59;;;7.45;43.35
19596;BME280;9945;46.010;8.946;2023-01-30T08:44:17;97539.00;;;7.31;43.79
19596;BME280;9945;46.010;8.946;2023-01-30T08:46:46;97551.78;;;7.34;44.39
19596;BME280;9945;46.010;8.946;2023-01-30T08:49:13;97550.56;;;7.60;44.80
19596;BME280;9945;46.010;8.946;2023-01-30T08:51:39;97542.66;;;7.93;44.90
19596;BME280;9945;46.010;8.946;2023-01-30T08:54:06;97555.97;;;8.33;43.63
19596;BME280;9945;46.010;8.946;2023-01-30T08:56:33;97558.06;;;8.81;40.92
19596;BME280;9945;46.010;8.946;2023-01-30T08:59:00;97554.38;;;9.14;41.59
19596;BME280;9945;46.010;8.946;2023-01-30T09:01:27;97558.41;;;9.58;39.44
19596;BME280;9945;46.010;8.946;2023-01-30T09:03:56;97551.44;;;9.87;38.51
19596;BME280;9945;46.010;8.946;2023-01-30T09:06:23;97558.22;;;10.09;37.99
19596;BME280;9945;46.010;8.946;2023-01-30T09:08:49;97558.69;;;10.43;38.29
19596;BME280;9945;46.010;8.946;2023-01-30T09:11:16;97555.94;;;10.45;37.24
19596;BME280;9945;46.010;8.946;2023-01-30T09:13:43;97558.97;;;10.50;37.94
19596;BME280;9945;46.010;8.946;2023-01-30T09:16:10;97546.28;;;10.45;38.98
19596;BME280;9945;46.010;8.946;2023-01-30T09:18:38;97531.66;;;10.62;38.47
19596;BME280;9945;46.010;8.946;2023-01-30T09:21:08;97530.16;;;11.06;37.56
19596;BME280;9945;46.010;8.946;2023-01-30T09:23:36;97512.03;;;10.95;37.57
19596;BME280;9945;46.010;8.946;2023-01-30T09:26:03;97506.75;;;11.87;36.66
19596;BME280;9945;46.010;8.946;2023-01-30T09:28:30;97516.25;;;13.10;34.38
19596;BME280;9945;46.010;8.946;2023-01-30T09:30:58;97493.44;;;14.19;33.34
19596;BME280;9945;46.010;8.946;2023-01-30T09:33:25;97486.78;;;15.12;30.96
19596;BME280;9945;46.010;8.946;2023-01-30T09:35:52;97482.56;;;16.27;28.86
19596;BME280;9945;46.010;8.946;2023-01-30T09:38:21;97483.59;;;17.16;27.93
19596;BME280;9945;46.010;8.946;2023-01-30T09:40:57;97485.66;;;17.20;28.33
19596;BME280;9945;46.010;8.946;2023-01-30T09:43:35;97477.78;;;18.07;27.25
19596;BME280;9945;46.010;8.946;2023-01-30T09:46:14;97486.56;;;18.50;26.11
19596;BME280;9945;46.010;8.946;2023-01-30T09:48:54;97477.09;;;18.90;26.19
19596;BME280;9945;46.010;8.946;2023-01-30T09:54:26;97475.63;;;21.42;23.38
19596;BME280;9945;46.010;8.946;2023-01-30T09:57:00;97463.63;;;21.71;23.20
19596;BME280;9945;46.010;8.946;2023-01-30T09:59:50;97462.56;;;22.48;22.23
19596;BME280;9945;46.010;8.946;2023-01-30T10:02:38;97458.22;;;23.76;21.26
19596;BME280;9945;46.010;8.946;2023-01-30T10:05:07;97454.75;;;24.36;20.75
19596;BME280;9945;46.010;8.946;2023-01-30T10:07:47;97445.78;;;25.58;19.76
19596;BME280;9945;46.010;8.946;2023-01-30T10:10:33;97451.81;;;26.06;19.42
19596;BME280;9945;46.010;8.946;2023-01-30T10:13:13;97450.97;;;27.34;18.47
19596;BME280;9945;46.010;8.946;2023-01-30T10:15:49;97447.25;;;28.27;17.76
19596;BME280;9945;46.010;8.946;2023-01-30T10:18:35;97440.41;;;29.15;16.62
19596;BME280;9945;46.010;8.946;2023-01-30T10:21:10;97440.69;;;29.66;16.62
19596;BME280;9945;46.010;8.946;2023-01-30T10:23:50;97435.03;;;29.15;16.63
19596;BME280;9945;46.010;8.946;2023-01-30T10:26:23;97420.97;;;29.65;16.63
19596;BME280;9945;46.010;8.946;2023-01-30T10:28:56;97412.22;;;30.26;15.92
19596;BME280;9945;46.010;8.946;2023-01-30T10:31:29;97397.91;;;30.86;15.59
19596;BME280;9945;46.010;8.946;2023-01-30T10:34:01;97403.00;;;31.08;15.23
19596;BME280;9945;46.010;8.946;2023-01-30T10:36:35;97402.22;;;31.77;14.26
19596;BME280;9945;46.010;8.946;2023-01-30T10:39:14;97386.81;;;32.16;14.13
19596;BME280;9945;46.010;8.946;2023-01-30T10:41:51;97379.31;;;32.03;14.15
19596;BME280;9945;46.010;8.946;2023-01-30T10:44:21;97382.25;;;32.80;13.69
19596;BME280;9945;46.010;8.946;2023-01-30T10:47:08;97384.44;;;33.30;13.98
19596;BME280;9945;46.010;8.946;2023-01-30T10:49:39;97370.25;;;33.10;13.45
19596;BME280;9945;46.010;8.946;2023-01-30T10:52:20;97367.81;;;32.84;14.21
19596;BME280;9945;46.010;8.946;2023-01-30T10:55:00;97357.53;;;33.34;13.52
19596;BME280;9945;46.010;8.946;2023-01-30T10:57:42;97343.78;;;33.68;12.88
19596;BME280;9945;46.010;8.946;2023-01-30T11:00:21;97341.28;;;33.90;13.45
19596;BME280;9945;46.010;8.946;2023-01-30T11:03:07;97343.13;;;34.46;13.16
19596;BME280;9945;46.010;8.946;2023-01-30T11:05:41;97328.06;;;34.67;12.60
19596;BME280;9945;46.010;8.946;2023-01-30T11:08:22;97328.00;;;35.13;12.73
19596;BME280;9945;46.010;8.946;2023-01-30T11:10:49;97338.00;;;35.32;12.68
19596;BME280;9945;46.010;8.946;2023-01-30T11:13:20;97322.63;;;35.22;12.19
19596;BME280;9945;46.010;8.946;2023-01-30T11:15:49;97317.09;;;35.13;11.87
19596;BME280;9945;46.010;8.946;2023-01-30T11:18:18;97329.53;;;34.78;12.14
19596;BME280;9945;46.010;8.946;2023-01-30T11:20:57;97316.53;;;35.03;11.96
19596;BME280;9945;46.010;8.946;2023-01-30T11:23:31;97301.69;;;34.81;12.05
19596;BME280;9945;46.010;8.946;2023-01-30T11:26:00;97308.94;;;34.26;12.79
19596;BME280;9945;46.010;8.946;2023-01-30T11:28:34;97298.19;;;34.48;11.77
19596;BME280;9945;46.010;8.946;2023-01-30T11:31:02;97296.03;;;34.32;12.36
19596;BME280;9945;46.010;8.946;2023-01-30T11:33:32;97285.06;;;34.04;12.03
19596;BME280;9945;46.010;8.946;2023-01-30T11:36:01;97279.94;;;34.35;12.15
19596;BME280;9945;46.010;8.946;2023-01-30T11:38:30;97275.50;;;34.39;11.98
19596;BME280;9945;46.010;8.946;2023-01-30T11:41:09;97279.19;;;34.62;11.74
19596;BME280;9945;46.010;8.946;2023-01-30T11:43:40;97273.06;;;34.38;12.51
19596;BME280;9945;46.010;8.946;2023-01-30T11:46:09;97274.56;;;34.76;12.17
19596;BME280;9945;46.010;8.946;2023-01-30T11:48:45;97281.91;;;35.17;11.96
19596;BME280;9945;46.010;8.946;2023-01-30T11:51:15;97290.38;;;35.43;11.67
19596;BME280;9945;46.010;8.946;2023-01-30T11:53:44;97266.38;;;35.81;10.76
19596;BME280;9945;46.010;8.946;2023-01-30T11:56:20;97268.75;;;36.27;10.90
19596;BME280;9945;46.010;8.946;2023-01-30T11:58:54;97266.34;;;36.56;10.33
19596;BME280;9945;46.010;8.946;2023-01-30T12:01:26;97244.63;;;36.73;10.37
19596;BME280;9945;46.010;8.946;2023-01-30T12:03:54;97241.75;;;36.87;10.57
19596;BME280;9945;46.010;8.946;2023-01-30T12:06:24;97239.16;;;35.89;10.82
19596;BME280;9945;46.010;8.946;2023-01-30T12:08:55;97223.25;;;35.47;10.75
19596;BME280;9945;46.010;8.946;2023-01-30T12:11:29;97207.06;;;36.17;9.98
19596;BME280;9945;46.010;8.946;2023-01-30T12:14:12;97207.41;;;36.55;10.38
19596;BME280;9945;46.010;8.946;2023-01-30T12:16:55;97203.16;;;36.71;10.63
19596;BME280;9945;46.010;8.946;2023-01-30T12:19:34;97203.72;;;36.99;9.93
19596;BME280;9945;46.010;8.946;2023-01-30T12:22:10;97195.25;;;37.35;10.02
19596;BME280;9945;46.010;8.946;2023-01-30T12:24:43;97195.88;;;37.15;9.80
19596;BME280;9945;46.010;8.946;2023-01-30T12:27:15;97185.75;;;37.16;9.63
19596;BME280;9945;46.010;8.946;2023-01-30T12:29:53;97174.78;;;36.90;10.13
19596;BME280;9945;46.010;8.946;2023-01-30T12:32:25;97162.44;;;37.35;10.14
19596;BME280;9945;46.010;8.946;2023-01-30T12:34:52;97173.72;;;37.77;9.70
19596;BME280;9945;46.010;8.946;2023-01-30T12:37:32;97166.16;;;37.65;9.87
19596;BME280;9945;46.010;8.946;2023-01-30T12:40:06;97164.84;;;37.71;9.79
19596;BME280;9945;46.010;8.946;2023-01-30T12:42:51;97169.00;;;37.77;9.51
19596;BME280;9945;46.010;8.946;2023-01-30T12:45:25;97155.69;;;37.50;10.06
19596;BME280;9945;46.010;8.946;2023-01-30T12:51:19;97156.50;;;35.80;10.37
19596;BME280;9945;46.010;8.946;2023-01-30T12:53:55;97143.13;;;34.62;11.04
19596;BME280;9945;46.010;8.946;2023-01-30T12:56:41;97131.31;;;33.66;12.17
19596;BME280;9945;46.010;8.946;2023-01-30T12:59:14;97123.06;;;34.31;12.09
19596;BME280;9945;46.010;8.946;2023-01-30T13:01:55;97121.44;;;35.43;11.63
19596;BME280;9945;46.010;8.946;2023-01-30T13:04:35;97114.41;;;35.50;11.53
19596;BME280;9945;46.010;8.946;2023-01-30T13:07:11;97108.91;;;35.64;11.14
19596;BME280;9945;46.010;8.946;2023-01-30T13:09:53;97106.47;;;35.85;11.48
19596;BME280;9945;46.010;8.946;2023-01-30T13:12:26;97097.66;;;35.88;11.03
19596;BME280;9945;46.010;8.946;2023-01-30T13:15:02;97087.63;;;36.54;10.61
19596;BME280;9945;46.010;8.946;2023-01-30T13:17:49;97086.75;;;35.65;11.17
19596;BME280;9945;46.010;8.946;2023-01-30T13:20:31;97087.34;;;34.87;10.52
19596;BME280;9945;46.010;8.946;2023-01-30T13:23:03;97078.94;;;35.42;10.79
19596;BME280;9945;46.010;8.946;2023-01-30T13:25:40;97088.03;;;35.90;10.41
19596;BME280;9945;46.010;8.946;2023-01-30T13:28:12;97082.00;;;36.50;10.17
19596;BME280;9945;46.010;8.946;2023-01-30T13:30:41;97082.88;;;37.37;9.85
19596;BME280;9945;46.010;8.946;2023-01-30T13:33:13;97069.38;;;37.32;9.90
19596;BME280;9945;46.010;8.946;2023-01-30T13:35:44;97065.03;;;36.96;9.80
19596;BME280;9945;46.010;8.946;2023-01-30T13:38:17;97048.66;;;36.79;10.31
19596;BME280;9945;46.010;8.946;2023-01-30T13:40:48;97053.06;;;36.23;10.04
19596;BME280;9945;46.010;8.946;2023-01-30T13:43:19;97056.66;;;36.93;9.94
19596;BME280;9945;46.010;8.946;2023-01-30T13:45:49;97045.03;;;37.65;9.77
19596;BME280;9945;46.010;8.946;2023-01-30T13:48:36;97044.69;;;37.75;9.52